Time;durP1;ratioP1;P1;durP2;ratioP2;P2;SDS_P1;SDS_P2;PMS_P1;PMS_P2;Temp;Humidity;BMP_temperature;BMP_pressure;BME280_temperature;BME280_humidity;BME280_pressure;Samples;Min_cycle;Max_cycle;Signal;HPM_P1;HPM_P2
2023/06/26 00:00:54;;;;;;;7.13;5.72;;;;;;;26.55;27.88;100890.25;5057318;28;20033;-61
2023/06/26 00:03:23;;;;;;;6.18;5.22;;;;;;;26.52;27.92;100885.13;5056187;28;20041;-61
2023/06/26 00:05:51;;;;;;;6.43;5.43;;;;;;;26.48;28.08;100889.50;5056293;28;20088;-61
2023/06/26 00:08:19;;;;;;;7.20;5.88;;;;;;;26.45;28.14;100884.38;5056646;28;20465;-59
2023/06/26 00:10:51;;;;;;;6.78;5.40;;;;;;;26.44;27.98;100888.28;5061273;28;20044;-61
2023/06/26 00:13:19;;;;;;;6.90;5.78;;;;;;;26.39;28.07;100884.22;5055532;28;20056;-63
2023/06/26 00:15:47;;;;;;;6.63;5.75;;;;;;;26.36;28.00;100886.66;5056790;28;20123;-61
2023/06/26 00:18:15;;;;;;;6.95;5.90;;;;;;;26.33;28.09;100892.75;5059871;28;20056;-63
2023/06/26 00:20:43;;;;;;;7.38;5.63;;;;;;;26.30;28.15;100888.44;5060228;28;20148;-62
2023/06/26 00:23:13;;;;;;;6.82;5.53;;;;;;;26.30;28.02;100885.66;5057528;28;20577;-62
2023/06/26 00:25:41;;;;;;;7.32;5.25;;;;;;;26.26;28.27;100883.56;5058710;28;20091;-63
2023/06/26 00:28:11;;;;;;;6.38;5.35;;;;;;;26.26;28.72;100884.44;5058722;28;20073;-62
2023/06/26 00:30:38;;;;;;;6.90;5.63;;;;;;;26.22;28.41;100883.16;5055577;28;20452;-63
2023/06/26 00:33:07;;;;;;;6.43;5.28;;;;;;;26.19;28.38;100880.88;5055454;28;20072;-62
2023/06/26 00:35:35;;;;;;;7.47;5.75;;;;;;;26.18;28.48;100887.56;5055204;28;20095;-62
2023/06/26 00:38:04;;;;;;;6.80;5.80;;;;;;;26.17;28.49;100883.03;5052152;28;20147;-62
2023/06/26 00:40:32;;;;;;;7.50;5.75;;;;;;;26.15;28.34;100881.56;5055369;28;20098;-62
2023/06/26 00:43:00;;;;;;;6.20;5.28;;;;;;;26.12;28.28;100873.63;5055317;28;20076;-62
2023/06/26 00:45:29;;;;;;;6.47;5.72;;;;;;;26.14;28.50;100871.44;5057598;28;20048;-62
2023/06/26 00:48:12;;;;;;;7.47;5.47;;;;;;;26.08;28.58;100869.56;5058260;28;20490;-62
2023/06/26 00:50:42;;;;;;;6.60;5.80;;;;;;;26.08;28.30;100869.56;5060902;28;20369;-59
2023/06/26 00:53:11;;;;;;;6.88;5.40;;;;;;;26.04;28.45;100871.13;5053043;28;20045;-60
2023/06/26 00:55:39;;;;;;;6.60;5.45;;;;;;;26.00;28.27;100873.53;5061459;28;20550;-62
2023/06/26 00:58:09;;;;;;;6.05;5.30;;;;;;;25.96;28.34;100877.91;5060824;28;20036;-62
2023/06/26 01:00:39;;;;;;;6.38;5.30;;;;;;;25.96;28.67;100872.31;5055809;28;20040;-63
2023/06/26 01:03:07;;;;;;;7.72;5.75;;;;;;;25.91;28.35;100877.75;5056040;28;20109;-62
2023/06/26 01:05:35;;;;;;;6.13;5.22;;;;;;;25.89;28.57;100875.19;5056067;28;20072;-61
2023/06/26 01:08:04;;;;;;;6.30;5.32;;;;;;;25.87;28.44;100871.78;5055307;28;20056;-62
2023/06/26 01:10:32;;;;;;;8.07;5.70;;;;;;;25.86;28.46;100867.25;5056994;28;20048;-61
2023/06/26 01:13:00;;;;;;;6.70;5.30;;;;;;;25.84;28.50;100862.97;5057993;28;20511;-63
2023/06/26 01:15:29;;;;;;;7.63;5.47;;;;;;;25.80;28.27;100856.97;5057882;28;20044;-63
2023/06/26 01:18:03;;;;;;;7.30;5.40;;;;;;;25.83;28.28;100858.44;5052959;28;20060;-63
2023/06/26 01:20:32;;;;;;;7.10;5.40;;;;;;;25.77;28.54;100851.84;5054916;28;20052;-61
2023/06/26 01:23:08;;;;;;;6.07;5.38;;;;;;;25.79;28.57;100860.03;5057707;28;20041;-59
2023/06/26 01:25:43;;;;;;;6.82;5.70;;;;;;;25.76;28.33;100858.53;5055351;28;20056;-63
2023/06/26 01:28:14;;;;;;;5.97;5.10;;;;;;;25.73;28.57;100850.59;5056030;28;20099;-62
2023/06/26 01:30:45;;;;;;;6.70;5.72;;;;;;;25.72;28.53;100848.88;5060229;28;20128;-62
2023/06/26 01:33:14;;;;;;;6.78;5.40;;;;;;;25.69;28.35;100848.50;5058693;28;20060;-62
2023/06/26 01:35:43;;;;;;;7.05;5.13;;;;;;;25.67;28.42;100847.88;5061589;28;20033;-63
2023/06/26 01:38:17;;;;;;;6.10;5.40;;;;;;;25.67;28.50;100845.06;5052444;28;20045;-62
2023/06/26 01:40:45;;;;;;;6.57;5.38;;;;;;;25.62;28.62;100846.63;5054278;28;20048;-63
2023/06/26 01:43:22;;;;;;;7.43;5.60;;;;;;;25.63;28.84;100845.56;5051148;28;20055;-63
2023/06/26 01:45:52;;;;;;;6.47;5.60;;;;;;;25.60;28.43;100840.41;5055631;28;20495;-63
2023/06/26 01:48:26;;;;;;;6.65;5.50;;;;;;;25.60;28.80;100840.41;5059375;28;20799;-63
2023/06/26 01:50:58;;;;;;;6.57;5.25;;;;;;;25.56;28.65;100843.88;5060173;28;20048;-63
2023/06/26 01:53:36;;;;;;;6.82;5.75;;;;;;;25.58;28.80;100850.13;5060660;28;20131;-62
2023/06/26 01:56:09;;;;;;;6.68;5.25;;;;;;;25.54;28.60;100848.91;5058295;28;20066;-62
2023/06/26 01:58:41;;;;;;;6.45;5.07;;;;;;;25.54;28.84;100852.56;5054262;28;20067;-62
2023/06/26 02:01:10;;;;;;;6.35;5.07;;;;;;;25.52;28.87;100853.88;5052161;28;20127;-61
2023/06/26 02:03:38;;;;;;;6.65;5.32;;;;;;;25.49;28.85;100854.28;5056090;28;20051;-62
2023/06/26 02:06:06;;;;;;;6.15;5.15;;;;;;;25.48;28.96;100845.03;5059172;28;20572;-62
2023/06/26 02:08:34;;;;;;;6.85;5.60;;;;;;;25.48;29.00;100852.56;5055680;28;20455;-62
2023/06/26 02:11:02;;;;;;;6.15;5.22;;;;;;;25.47;29.00;100856.50;5062718;28;20059;-62
2023/06/26 02:13:29;;;;;;;5.68;4.88;;;;;;;25.46;28.83;100861.25;5092848;28;20064;-62
2023/06/26 02:15:59;;;;;;;6.15;5.28;;;;;;;25.48;28.90;100863.78;5059552;28;20052;-61
2023/06/26 02:18:27;;;;;;;5.82;5.13;;;;;;;25.44;28.97;100866.22;5057975;28;21339;-64
2023/06/26 02:20:54;;;;;;;7.40;5.75;;;;;;;25.44;29.17;100863.41;5058739;28;20053;-62
2023/06/26 02:23:22;;;;;;;7.45;5.60;;;;;;;25.42;29.10;100868.38;5059187;28;20040;-62
2023/06/26 02:25:50;;;;;;;6.78;5.55;;;;;;;25.43;28.98;100869.25;5063080;28;20032;-63
2023/06/26 02:28:18;;;;;;;6.30;5.40;;;;;;;25.42;29.03;100861.91;5057226;28;20475;-62
2023/06/26 02:30:46;;;;;;;6.82;5.53;;;;;;;25.41;29.14;100868.59;5061241;28;20348;-62
2023/06/26 02:33:15;;;;;;;6.57;5.68;;;;;;;25.42;29.07;100861.91;5059189;28;20067;-62
2023/06/26 02:35:43;;;;;;;7.00;5.80;;;;;;;25.39;29.04;100868.84;5064528;28;20048;-62
2023/06/26 02:38:12;;;;;;;7.22;5.60;;;;;;;25.38;29.14;100869.94;5056591;28;20143;-62
2023/06/26 02:40:40;;;;;;;6.10;5.05;;;;;;;25.36;29.11;100883.31;5059784;28;20415;-63
2023/06/26 02:43:08;;;;;;;6.60;5.65;;;;;;;25.36;29.21;100893.69;5058464;28;20045;-62
2023/06/26 02:45:36;;;;;;;6.55;5.70;;;;;;;25.33;29.33;100894.97;5060981;28;20620;-63
2023/06/26 02:48:05;;;;;;;7.57;6.13;;;;;;;25.33;29.27;100894.13;5060225;28;20048;-63
2023/06/26 02:50:35;;;;;;;6.55;5.82;;;;;;;25.32;29.50;100896.06;5061234;28;20041;-63
2023/06/26 02:53:07;;;;;;;6.93;5.97;;;;;;;25.30;29.44;100898.28;5054792;28;20352;-63
2023/06/26 02:55:38;;;;;;;7.07;6.22;;;;;;;25.28;29.47;100900.44;5056611;28;20053;-63
2023/06/26 02:58:06;;;;;;;7.32;5.82;;;;;;;25.26;29.57;100897.00;5056970;28;20103;-62
2023/06/26 03:00:35;;;;;;;6.88;5.43;;;;;;;25.26;29.63;100903.47;5058408;28;20090;-62
2023/06/26 03:03:05;;;;;;;6.10;5.40;;;;;;;25.24;29.77;100904.78;5056599;28;20132;-62
2023/06/26 03:05:34;;;;;;;7.78;5.50;;;;;;;25.23;29.76;100911.44;5054807;28;20049;-62
2023/06/26 03:08:03;;;;;;;6.95;5.50;;;;;;;25.23;29.65;100908.66;5051519;28;20143;-63
2023/06/26 03:10:31;;;;;;;5.53;4.82;;;;;;;25.23;29.65;100919.84;5055103;28;20044;-62
2023/06/26 03:12:59;;;;;;;6.13;5.32;;;;;;;25.21;29.66;100916.47;5051777;28;20044;-62
2023/06/26 03:15:27;;;;;;;6.97;5.60;;;;;;;25.21;29.59;100927.66;5056829;28;20507;-62
2023/06/26 03:17:55;;;;;;;5.30;4.80;;;;;;;25.20;29.50;100925.94;5057955;28;20080;-62
2023/06/26 03:20:26;;;;;;;6.43;5.10;;;;;;;25.16;29.48;100928.31;5056568;28;20044;-62
2023/06/26 03:22:58;;;;;;;6.03;5.10;;;;;;;25.20;29.59;100929.59;5057455;28;20127;-62
2023/06/26 03:25:27;;;;;;;6.82;5.35;;;;;;;25.17;29.65;100924.44;5054814;28;20048;-62
2023/06/26 03:28:20;;;;;;;6.00;4.78;;;;;;;25.12;29.49;100921.50;5060199;28;20040;-63
2023/06/26 03:30:48;;;;;;;6.13;4.65;;;;;;;25.12;29.57;100926.22;5055607;28;20098;-62
2023/06/26 03:33:17;;;;;;;7.20;4.53;;;;;;;25.12;29.27;100927.09;5057483;28;20044;-63
2023/06/26 03:35:45;;;;;;;5.85;4.45;;;;;;;25.10;29.45;100926.44;5055132;28;20139;-62
2023/06/26 03:38:16;;;;;;;6.35;4.53;;;;;;;25.11;29.71;100925.38;5052688;28;20467;-62
2023/06/26 03:40:45;;;;;;;6.38;5.28;;;;;;;25.08;30.02;100924.97;5051136;28;20076;-62
2023/06/26 03:43:13;;;;;;;6.07;4.70;;;;;;;25.07;29.96;100931.63;5057548;28;20040;-63
2023/06/26 03:45:58;;;;;;;6.20;4.70;;;;;;;25.04;30.04;100930.19;5061440;28;20067;-63
2023/06/26 03:48:27;;;;;;;6.30;4.55;;;;;;;25.04;30.20;100940.50;5055782;28;20041;-63
2023/06/26 03:50:56;;;;;;;5.05;4.50;;;;;;;25.04;30.07;100937.72;5061502;28;20377;-62
2023/06/26 03:53:25;;;;;;;6.05;4.57;;;;;;;25.05;30.15;100937.50;5055445;28;20037;-62
2023/06/26 03:55:53;;;;;;;6.03;4.45;;;;;;;25.03;30.42;100938.81;5053963;28;20047;-63
2023/06/26 03:58:23;;;;;;;5.68;4.30;;;;;;;25.02;30.38;100942.69;5056882;28;20123;-63
2023/06/26 04:00:51;;;;;;;7.00;4.40;;;;;;;25.03;30.38;100947.19;5058845;28;20040;-63
2023/06/26 04:03:19;;;;;;;5.78;4.63;;;;;;;25.01;30.60;100950.22;5052828;28;20047;-62
2023/06/26 04:05:48;;;;;;;5.30;4.38;;;;;;;25.02;30.47;100946.34;5058574;28;20048;-61
2023/06/26 04:08:15;;;;;;;5.85;4.28;;;;;;;25.01;30.54;100953.03;5052042;28;20532;-62
2023/06/26 04:10:47;;;;;;;5.32;4.25;;;;;;;25.04;30.34;100957.31;5053855;28;20036;-62
2023/06/26 04:13:15;;;;;;;5.55;4.30;;;;;;;24.99;30.62;100966.38;5062715;28;20067;-62
2023/06/26 04:15:43;;;;;;;5.32;4.40;;;;;;;25.02;30.55;100967.88;5059470;28;20047;-62
2023/06/26 04:18:12;;;;;;;5.53;4.20;;;;;;;25.01;30.65;100966.16;5057090;28;20064;-62
2023/06/26 04:20:41;;;;;;;5.38;4.35;;;;;;;25.02;30.56;100974.34;5055827;28;20067;-62
2023/06/26 04:23:09;;;;;;;5.75;4.53;;;;;;;25.02;30.60;100976.28;5055291;28;20079;-62
2023/06/26 04:25:37;;;;;;;5.18;4.20;;;;;;;25.02;30.71;100981.88;5056473;28;20606;-62
2023/06/26 04:28:07;;;;;;;5.65;4.13;;;;;;;25.03;30.63;100981.66;5058235;28;20129;-62
2023/06/26 04:30:35;;;;;;;5.63;4.30;;;;;;;25.01;30.59;100988.56;5060427;28;20044;-62
2023/06/26 04:33:03;;;;;;;5.38;4.20;;;;;;;25.00;30.68;100984.03;5057113;28;20431;-62
2023/06/26 04:35:36;;;;;;;5.97;4.50;;;;;;;25.00;30.63;100992.44;5062645;28;20063;-62
2023/06/26 04:38:04;;;;;;;6.50;4.93;;;;;;;24.99;30.80;100983.19;5055808;28;20074;-63
2023/06/26 04:40:32;;;;;;;4.97;4.05;;;;;;;24.99;30.83;100985.13;5056106;28;20596;-63
2023/06/26 04:43:00;;;;;;;6.10;4.38;;;;;;;24.99;30.72;100979.53;5058591;28;20048;-62
2023/06/26 04:45:29;;;;;;;6.07;4.68;;;;;;;25.01;30.73;100983.81;5060798;28;20040;-62
2023/06/26 04:47:57;;;;;;;5.15;4.10;;;;;;;24.98;31.01;100984.25;5054496;28;20064;-62
2023/06/26 04:50:25;;;;;;;4.78;3.58;;;;;;;24.99;30.83;100987.91;5056121;28;20052;-62
2023/06/26 04:52:53;;;;;;;5.40;3.83;;;;;;;24.99;30.87;100993.53;5057234;28;20123;-62
2023/06/26 04:55:21;;;;;;;5.78;3.65;;;;;;;25.00;30.70;100992.44;5058245;28;20549;-62
2023/06/26 04:57:49;;;;;;;4.93;3.70;;;;;;;25.00;30.49;100998.03;5058910;28;20482;-62
2023/06/26 05:00:18;;;;;;;4.97;4.10;;;;;;;25.01;30.59;100992.22;5058580;28;20128;-62
2023/06/26 05:02:47;;;;;;;5.72;3.78;;;;;;;25.03;30.47;100997.59;5058036;28;20063;-62
2023/06/26 05:05:15;;;;;;;6.13;3.33;;;;;;;25.02;30.56;101004.28;5054879;28;20037;-62
2023/06/26 05:07:43;;;;;;;5.13;3.50;;;;;;;25.02;30.66;101001.47;5055229;28;20077;-62
2023/06/26 05:10:11;;;;;;;4.95;3.47;;;;;;;25.04;30.72;101010.53;5050938;28;20526;-62
2023/06/26 05:12:39;;;;;;;5.18;3.58;;;;;;;25.04;30.81;101000.19;5058285;28;20227;-62
2023/06/26 05:15:08;;;;;;;4.78;3.80;;;;;;;25.06;30.76;101006.38;5050673;28;20048;-62
2023/06/26 05:17:35;;;;;;;5.82;3.80;;;;;;;25.08;30.70;101011.78;5055013;28;20036;-62
2023/06/26 05:20:05;;;;;;;6.25;3.97;;;;;;;25.12;30.76;101013.03;5059918;28;20036;-63
2023/06/26 05:22:35;;;;;;;5.15;3.85;;;;;;;25.13;30.86;101011.97;5058029;28;20052;-62
2023/06/26 05:25:05;;;;;;;4.22;3.22;;;;;;;25.18;30.77;101012.13;5057841;28;20123;-62
2023/06/26 05:27:34;;;;;;;4.38;3.30;;;;;;;25.18;30.87;101018.59;5057316;28;20571;-62
2023/06/26 05:30:03;;;;;;;4.65;3.42;;;;;;;25.22;30.72;101017.06;5056614;28;20045;-62
2023/06/26 05:32:31;;;;;;;6.00;3.55;;;;;;;25.25;30.63;101019.41;5058113;28;20539;-62
2023/06/26 05:35:02;;;;;;;5.32;3.75;;;;;;;25.29;30.67;101033.81;5060488;28;20044;-62
2023/06/26 05:37:32;;;;;;;4.55;3.60;;;;;;;25.30;30.69;101040.28;5060417;28;20130;-63
2023/06/26 05:40:02;;;;;;;4.78;3.60;;;;;;;25.29;30.69;101036.63;5062427;28;20053;-63
2023/06/26 05:42:31;;;;;;;4.60;3.45;;;;;;;25.33;30.78;101037.00;5059827;28;20618;-62
2023/06/26 05:44:58;;;;;;;5.95;3.80;;;;;;;25.34;31.06;101044.31;5057554;28;20140;-62
2023/06/26 05:47:27;;;;;;;5.47;3.90;;;;;;;25.37;31.01;101046.69;5061062;28;20607;-61
2023/06/26 05:49:55;;;;;;;5.60;4.00;;;;;;;25.42;31.17;101049.66;5063121;28;20049;-61
2023/06/26 05:52:24;;;;;;;5.05;3.83;;;;;;;25.44;30.93;101042.75;5059474;28;20670;-61
2023/06/26 05:54:54;;;;;;;5.03;3.80;;;;;;;25.47;31.00;101036.66;5059860;28;20071;-61
2023/06/26 05:57:22;;;;;;;5.38;4.00;;;;;;;25.47;30.91;101042.25;5060990;28;20048;-61
2023/06/26 05:59:51;;;;;;;5.57;3.67;;;;;;;25.49;30.86;101050.44;5063660;28;20040;-63
2023/06/26 06:02:19;;;;;;;5.40;3.63;;;;;;;25.50;30.89;101044.63;5058765;28;20500;-63
2023/06/26 06:04:47;;;;;;;4.90;3.78;;;;;;;25.52;30.80;101047.22;5064398;28;20144;-63
2023/06/26 06:07:15;;;;;;;6.10;3.95;;;;;;;25.51;30.94;101045.50;5062645;28;20072;-63
2023/06/26 06:09:43;;;;;;;5.28;3.90;;;;;;;25.51;30.66;101045.50;5060836;28;20496;-66
2023/06/26 06:12:12;;;;;;;5.85;4.03;;;;;;;25.53;30.70;101049.81;5060731;28;20059;-67
2023/06/26 06:14:40;;;;;;;5.72;3.53;;;;;;;25.50;30.50;101046.56;5061221;28;20060;-65
2023/06/26 06:17:08;;;;;;;5.68;3.55;;;;;;;25.48;30.66;101058.00;5057733;28;20475;-67
2023/06/26 06:19:35;;;;;;;6.05;3.78;;;;;;;25.47;30.40;101053.47;5060626;28;20037;-67
2023/06/26 06:22:04;;;;;;;4.80;3.28;;;;;;;25.46;30.62;101068.59;5060861;28;20415;-69
2023/06/26 06:24:32;;;;;;;5.35;3.78;;;;;;;25.44;30.59;101067.97;5064593;28;20263;-67
2023/06/26 06:27:00;;;;;;;5.45;3.70;;;;;;;25.42;30.59;101060.84;5062905;28;20695;-66
2023/06/26 06:29:29;;;;;;;5.20;3.35;;;;;;;25.42;30.52;101072.94;5060002;28;20176;-62
2023/06/26 06:31:57;;;;;;;5.28;3.33;;;;;;;25.39;30.67;101075.34;5061097;28;20170;-66
2023/06/26 06:34:25;;;;;;;5.38;3.45;;;;;;;25.35;30.43;101085.28;5065069;28;20033;-65
2023/06/26 06:36:53;;;;;;;4.78;3.47;;;;;;;25.32;30.49;101086.56;5062405;28;20064;-67
2023/06/26 06:39:21;;;;;;;5.55;3.22;;;;;;;25.29;30.65;101091.78;5056903;28;20147;-67
2023/06/26 06:41:49;;;;;;;5.43;3.30;;;;;;;25.25;30.92;101096.97;5063000;28;20136;-67
2023/06/26 06:44:17;;;;;;;6.50;3.28;;;;;;;25.23;30.87;101099.13;5053147;28;20295;-67
2023/06/26 06:46:46;;;;;;;5.22;3.50;;;;;;;25.25;31.13;101095.03;5057513;28;20149;-67
2023/06/26 06:49:14;;;;;;;5.85;3.22;;;;;;;25.25;31.25;101096.97;5055045;28;20122;-67
2023/06/26 06:51:42;;;;;;;5.40;3.50;;;;;;;25.27;31.34;101104.06;5060276;28;20136;-67
2023/06/26 06:54:10;;;;;;;5.10;2.95;;;;;;;25.30;31.37;101099.13;5062705;28;20124;-67
2023/06/26 06:56:38;;;;;;;5.55;3.58;;;;;;;25.34;31.33;101101.22;5059200;28;20051;-67
2023/06/26 06:59:06;;;;;;;4.85;3.40;;;;;;;25.39;31.29;101106.16;5058121;28;20090;-67
2023/06/26 07:01:34;;;;;;;5.13;2.97;;;;;;;25.43;31.25;101111.06;5056897;28;20044;-67
2023/06/26 07:04:03;;;;;;;5.40;3.53;;;;;;;25.50;31.18;101120.28;5057928;28;20045;-68
2023/06/26 07:06:31;;;;;;;4.80;3.13;;;;;;;25.54;31.26;101117.94;5059297;28;20551;-67
2023/06/26 07:08:59;;;;;;;5.45;3.22;;;;;;;25.60;31.31;101128.22;5058611;28;20475;-66
2023/06/26 07:11:27;;;;;;;5.22;3.10;;;;;;;25.64;30.95;101127.53;5059085;28;20526;-67
2023/06/26 07:13:56;;;;;;;4.68;3.17;;;;;;;25.69;30.69;101135.28;5078799;23;20032;-80
2023/06/26 07:16:24;;;;;;;5.20;3.10;;;;;;;25.70;30.68;101130.53;5075220;27;20052;-82
2023/06/26 07:18:52;;;;;;;5.93;3.28;;;;;;;25.71;30.91;101140.66;5081114;28;20040;-80
2023/06/26 07:21:22;;;;;;;5.80;3.13;;;;;;;25.74;30.48;101132.63;5083567;28;20370;-80
2023/06/26 07:23:53;;;;;;;6.00;3.28;;;;;;;25.72;30.48;101132.00;5086519;28;20048;-78
2023/06/26 07:26:21;;;;;;;5.05;3.25;;;;;;;25.71;30.58;101126.66;5083334;28;20074;-79
2023/06/26 07:29:06;;;;;;;5.30;3.03;;;;;;;25.71;30.30;101130.31;5081541;28;20049;-80
2023/06/26 07:31:35;;;;;;;5.80;3.20;;;;;;;25.72;30.34;101123.59;5075006;28;20048;-80
2023/06/26 07:34:03;;;;;;;4.82;2.95;;;;;;;25.71;30.57;101123.84;5079579;28;20044;-79
2023/06/26 07:36:32;;;;;;;4.95;2.92;;;;;;;25.74;30.61;101120.56;5064754;28;20692;-80
2023/06/26 07:39:00;;;;;;;5.45;2.85;;;;;;;25.75;30.75;101122.28;5067230;28;20044;-81
2023/06/26 07:41:30;;;;;;;4.85;2.80;;;;;;;25.77;30.82;101122.91;5065729;28;20076;-81
2023/06/26 07:43:59;;;;;;;5.45;2.88;;;;;;;25.80;30.77;101120.50;5073282;28;20592;-81
2023/06/26 07:46:27;;;;;;;5.97;2.92;;;;;;;25.83;30.84;101120.03;5087194;28;20033;-79
2023/06/26 07:48:55;;;;;;;5.60;2.88;;;;;;;25.87;30.63;101126.06;5085980;28;20063;-78
2023/06/26 07:51:23;;;;;;;5.97;3.00;;;;;;;25.90;30.76;101136.81;5069803;28;20036;-79
2023/06/26 07:53:53;;;;;;;5.47;3.22;;;;;;;25.95;30.96;101137.84;5071881;28;20049;-78
2023/06/26 07:56:21;;;;;;;5.22;2.92;;;;;;;25.97;30.35;101140.41;5075816;28;20087;-78
2023/06/26 07:58:49;;;;;;;5.10;3.13;;;;;;;26.01;30.80;101134.13;5081937;28;20039;-76
2023/06/26 08:01:17;;;;;;;4.78;2.67;;;;;;;26.06;30.82;101140.97;5077820;28;20055;-78
2023/06/26 08:03:45;;;;;;;4.75;3.17;;;;;;;26.09;30.71;101143.38;5080214;28;20046;-79
2023/06/26 08:06:13;;;;;;;5.47;3.30;;;;;;;26.09;30.60;101147.03;5073460;28;20721;-80
2023/06/26 08:08:41;;;;;;;5.55;3.20;;;;;;;26.13;30.27;101145.50;5077010;28;20054;-80
2023/06/26 08:11:10;;;;;;;6.35;3.40;;;;;;;26.17;30.30;101157.09;5069961;28;20415;-79
2023/06/26 08:13:39;;;;;;;5.88;3.20;;;;;;;26.14;30.33;101155.59;5072436;28;20048;-80
2023/06/26 08:16:07;;;;;;;7.03;2.92;;;;;;;26.12;30.23;101152.19;5076917;28;20045;-81
2023/06/26 08:18:35;;;;;;;5.32;3.15;;;;;;;26.12;30.19;101156.94;5076651;28;20044;-78
2023/06/26 08:21:03;;;;;;;4.55;3.00;;;;;;;26.09;30.13;101168.63;5070767;28;20040;-82
2023/06/26 08:23:31;;;;;;;5.85;3.55;;;;;;;26.08;30.16;101175.31;5064378;28;20070;-82
2023/06/26 08:25:59;;;;;;;5.13;3.20;;;;;;;26.05;30.30;101167.34;5067765;28;20044;-82
2023/06/26 08:28:28;;;;;;;5.45;3.35;;;;;;;26.04;30.39;101168.41;5074410;28;20122;-83
2023/06/26 08:30:56;;;;;;;5.45;3.50;;;;;;;25.99;30.48;101171.91;5069048;28;20081;-82
2023/06/26 08:33:24;;;;;;;5.40;3.67;;;;;;;25.99;30.59;101175.56;5067209;28;20045;-81
2023/06/26 08:35:51;;;;;;;5.43;3.47;;;;;;;25.99;30.52;101175.56;5069416;28;20124;-82
2023/06/26 08:38:21;;;;;;;5.85;3.70;;;;;;;25.99;30.42;101174.69;5066392;28;20078;-78
2023/06/26 08:40:49;;;;;;;5.75;3.38;;;;;;;25.98;30.46;101184.19;5066117;28;20055;-80
2023/06/26 08:43:17;;;;;;;6.30;3.90;;;;;;;25.97;30.44;101191.75;5075187;28;20098;-81
2023/06/26 08:45:51;;;;;;;5.47;3.88;;;;;;;25.98;30.25;101190.66;5064942;28;20038;-81
2023/06/26 08:48:20;;;;;;;5.85;3.83;;;;;;;25.94;30.16;101188.56;5073231;28;20064;-79
2023/06/26 08:50:49;;;;;;;5.43;3.30;;;;;;;25.93;30.10;101193.31;5070712;28;20040;-81
2023/06/26 08:53:25;;;;;;;5.45;3.40;;;;;;;25.94;30.55;101203.44;5068986;28;20126;-83
2023/06/26 08:55:54;;;;;;;6.95;3.05;;;;;;;25.91;30.28;101212.31;5071700;28;20044;-85
2023/06/26 08:58:22;;;;;;;5.72;2.90;;;;;;;25.92;30.32;101204.75;5077358;28;20055;-82
2023/06/26 09:00:52;;;;;;;4.90;3.00;;;;;;;25.95;30.38;101202.34;5071269;28;20043;-82
2023/06/26 09:03:21;;;;;;;4.15;2.90;;;;;;;25.93;30.44;101209.28;5079149;28;20032;-79
2023/06/26 09:05:49;;;;;;;5.22;2.92;;;;;;;25.93;30.37;101201.72;5084535;28;20052;-77
2023/06/26 09:08:17;;;;;;;5.82;2.85;;;;;;;25.95;30.26;101207.09;5087597;28;20036;-79
2023/06/26 09:10:45;;;;;;;5.25;3.13;;;;;;;25.96;30.53;101206.03;5083546;28;20450;-82
2023/06/26 09:13:14;;;;;;;5.90;3.00;;;;;;;25.96;29.92;101212.50;5072395;28;20057;-81
2023/06/26 09:15:58;;;;;;;4.72;2.95;;;;;;;25.99;30.24;101213.97;5065631;28;20070;-84
2023/06/26 09:18:27;;;;;;;4.65;3.08;;;;;;;25.98;30.44;101198.22;5071394;28;20075;-82
2023/06/26 09:20:55;;;;;;;5.50;2.90;;;;;;;26.01;30.45;101195.81;5072602;28;20115;-84
2023/06/26 09:23:23;;;;;;;5.28;2.90;;;;;;;26.04;30.36;101188.06;5069166;28;20059;-82
2023/06/26 09:25:52;;;;;;;6.10;3.22;;;;;;;26.09;30.48;101196.66;5093061;28;20582;-83
2023/06/26 09:28:21;;;;;;;5.45;2.63;;;;;;;26.12;30.38;101199.03;5061590;28;20052;-81
2023/06/26 09:30:50;;;;;;;6.05;2.70;;;;;;;26.19;30.01;101206.28;5065185;28;20029;-82
2023/06/26 09:33:21;;;;;;;5.20;2.78;;;;;;;26.24;29.74;101202.78;5070659;28;20043;-82
2023/06/26 09:35:49;;;;;;;5.00;2.70;;;;;;;26.27;29.55;101208.81;5072482;28;20047;-79
2023/06/26 09:38:17;;;;;;;5.72;2.70;;;;;;;26.30;29.79;101211.13;5073792;28;20050;-81
2023/06/26 09:40:46;;;;;;;4.88;2.70;;;;;;;26.34;29.61;101209.59;5089489;28;20040;-80
2023/06/26 09:43:14;;;;;;;4.72;2.60;;;;;;;26.38;29.79;101208.03;5068908;28;20048;-80
2023/06/26 09:45:43;;;;;;;5.00;2.58;;;;;;;26.39;29.81;101212.56;5050552;28;20047;-81
2023/06/26 09:48:14;;;;;;;4.75;2.50;;;;;;;26.43;29.59;101209.28;5053033;28;20052;-79
2023/06/26 09:50:44;;;;;;;5.77;2.37;;;;;;;26.48;29.29;101221.53;5056602;28;20045;-80
2023/06/26 09:53:35;;;;;;;4.13;2.25;;;;;;;26.49;29.17;101217.66;5047573;28;20064;-80
2023/06/26 09:56:06;;;;;;;4.03;2.20;;;;;;;26.55;28.79;101224.28;5051129;28;20045;-80
2023/06/26 09:58:37;;;;;;;4.85;2.50;;;;;;;26.53;28.86;101230.16;5073308;28;20629;-80
2023/06/26 10:01:07;;;;;;;5.03;2.80;;;;;;;26.57;28.95;101222.09;5078094;28;20466;-81
2023/06/26 10:03:37;;;;;;;4.50;2.70;;;;;;;26.58;29.13;101227.50;5084660;28;20032;-86
2023/06/26 10:06:10;;;;;;;4.40;2.10;;;;;;;26.64;28.62;101229.41;5078740;28;20040;-84
2023/06/26 10:08:40;;;;;;;5.18;2.25;;;;;;;26.66;28.71;101231.97;5083305;28;20567;-83
2023/06/26 10:11:13;;;;;;;4.20;2.28;;;;;;;26.69;28.50;101223.97;5076447;28;20064;-83
2023/06/26 10:13:46;;;;;;;4.55;2.05;;;;;;;26.74;28.39;101231.66;5092382;28;20431;-83
2023/06/26 10:16:20;;;;;;;3.40;2.00;;;;;;;26.77;28.15;101222.78;5072581;28;20432;-86
2023/06/26 10:18:49;;;;;;;4.10;2.08;;;;;;;26.82;28.58;101224.88;5075739;28;20131;-84
2023/06/26 10:21:21;;;;;;;2.97;1.80;;;;;;;26.87;28.18;101228.72;5069177;28;20200;-85
2023/06/26 10:23:53;;;;;;;3.83;2.10;;;;;;;26.91;27.74;101231.91;5067146;28;20040;-86
2023/06/26 10:26:26;;;;;;;4.70;1.90;;;;;;;26.94;28.05;101232.31;5080153;28;20042;-85
2023/06/26 10:28:57;;;;;;;3.33;1.70;;;;;;;27.01;27.57;101226.63;5077594;28;20071;-85
2023/06/26 10:31:29;;;;;;;4.10;1.75;;;;;;;27.06;27.21;101238.00;5079567;28;20047;-86
2023/06/26 10:33:59;;;;;;;3.40;1.70;;;;;;;27.08;27.42;101239.50;5086018;28;20372;-85
2023/06/26 10:36:33;;;;;;;4.40;1.63;;;;;;;27.17;26.44;101239.19;5095968;28;20036;-86
2023/06/26 10:39:06;;;;;;;3.50;1.60;;;;;;;27.16;27.02;101232.72;5082333;28;20059;-85
2023/06/26 10:41:38;;;;;;;3.72;1.83;;;;;;;27.24;26.49;101234.34;5081054;28;20461;-84
2023/06/26 10:44:18;;;;;;;4.75;1.77;;;;;;;27.24;27.14;101232.41;5045977;28;20036;-86
2023/06/26 10:46:52;;;;;;;4.38;1.75;;;;;;;27.31;26.54;101246.34;5066575;28;20131;-87
2023/06/26 10:49:21;;;;;;;2.65;1.65;;;;;;;27.33;26.28;101225.38;5075026;28;20045;-85
2023/06/26 10:51:51;;;;;;;5.03;1.60;;;;;;;27.39;26.36;101234.78;5070170;28;20127;-83
2023/06/26 10:54:20;;;;;;;4.05;1.70;;;;;;;27.40;26.09;101250.56;5080709;28;20032;-83
2023/06/26 10:56:50;;;;;;;3.22;1.60;;;;;;;27.44;26.05;101237.78;5058955;28;20126;-85
2023/06/26 10:59:20;;;;;;;3.45;1.70;;;;;;;27.45;26.25;101233.88;5083201;28;20055;-83
2023/06/26 11:01:56;;;;;;;2.35;1.52;;;;;;;27.49;25.41;101235.09;5072177;28;20552;-84
2023/06/26 11:04:39;;;;;;;3.65;1.73;;;;;;;27.49;25.82;101247.19;5100564;28;20047;-86
2023/06/26 11:07:21;;;;;;;4.65;1.55;;;;;;;27.53;25.32;101252.34;5093183;28;20730;-86
2023/06/26 11:10:00;;;;;;;5.63;1.60;;;;;;;27.53;25.59;101261.66;5088166;28;20083;-85
2023/06/26 11:12:39;;;;;;;2.03;1.23;;;;;;;27.57;25.59;101251.63;5080755;28;20082;-85
2023/06/26 11:15:11;;;;;;;3.70;1.40;;;;;;;27.57;25.31;101262.88;5063740;28;20044;-85
2023/06/26 11:17:40;;;;;;;2.38;1.30;;;;;;;27.60;25.31;101264.38;5063972;28;20407;-86
2023/06/26 11:20:10;;;;;;;2.85;1.42;;;;;;;27.64;25.42;101263.63;5057411;28;20044;-85
2023/06/26 11:22:41;;;;;;;1.98;1.25;;;;;;;27.68;25.39;101252.78;5056529;28;20067;-84
2023/06/26 11:25:11;;;;;;;3.13;1.50;;;;;;;27.69;25.36;101275.09;5075798;28;20040;-86
2023/06/26 11:27:39;;;;;;;4.43;1.60;;;;;;;27.72;24.96;101273.72;5064728;28;20291;-85
2023/06/26 11:30:10;;;;;;;2.47;1.25;;;;;;;27.73;24.95;101275.44;5104133;28;20040;-83
2023/06/26 11:32:38;;;;;;;2.40;1.40;;;;;;;27.72;24.79;101283.03;5076962;28;20041;-83
2023/06/26 11:35:09;;;;;;;3.58;1.42;;;;;;;27.73;24.34;101276.31;5073716;28;20569;-85